sensor_id;sensor_type;location;lat;lon;timestamp;pressure;altitude;pressure_sealevel;temperature;humidity
7337;BME280;54510;42.016;23.098;2022-08-02T00:01:27;-21743.06;;;22.25;53.37
7337;BME280;54510;42.016;23.098;2022-08-02T00:03:53;-21738.56;;;22.08;54.19
7337;BME280;54510;42.016;23.098;2022-08-02T00:06:18;-21737.19;;;22.03;54.26
7337;BME280;54510;42.016;23.098;2022-08-02T00:08:44;-21739.09;;;22.10;54.10
7337;BME280;54510;42.016;23.098;2022-08-02T00:11:09;-21740.34;;;22.15;54.13
7337;BME280;54510;42.016;23.098;2022-08-02T00:13:35;-21745.41;;;22.33;53.66
7337;BME280;54510;42.016;23.098;2022-08-02T00:16:00;-21744.03;;;22.28;53.29
7337;BME280;54510;42.016;23.098;2022-08-02T00:18:26;-21739.94;;;22.13;53.94
7337;BME280;54510;42.016;23.098;2022-08-02T00:20:52;-21736.09;;;21.99;54.29
7337;BME280;54510;42.016;23.098;2022-08-02T00:23:17;-21739.38;;;22.11;53.14
7337;BME280;54510;42.016;23.098;2022-08-02T00:25:43;-21736.66;;;22.01;54.52
7337;BME280;54510;42.016;23.098;2022-08-02T00:28:08;-21742.13;;;22.21;53.53
7337;BME280;54510;42.016;23.098;2022-08-02T00:30:35;-21737.34;;;22.03;53.59
7337;BME280;54510;42.016;23.098;2022-08-02T00:33:01;-21734.72;;;21.94;54.25
7337;BME280;54510;42.016;23.098;2022-08-02T00:35:27;-21733.09;;;21.88;54.30
7337;BME280;54510;42.016;23.098;2022-08-02T00:37:52;-21740.47;;;22.15;53.97
7337;BME280;54510;42.016;23.098;2022-08-02T00:40:20;-21750.59;;;22.53;53.29
7337;BME280;54510;42.016;23.098;2022-08-02T00:45:29;-21746.63;;;22.38;53.09
7337;BME280;54510;42.016;23.098;2022-08-02T00:47:55;-21745.13;;;22.32;53.54
7337;BME280;54510;42.016;23.098;2022-08-02T00:50:20;-21738.44;;;22.08;54.36
7337;BME280;54510;42.016;23.098;2022-08-02T00:52:45;-21729.25;;;21.74;54.90
7337;BME280;54510;42.016;23.098;2022-08-02T00:55:11;-21734.03;;;21.91;54.64
7337;BME280;54510;42.016;23.098;2022-08-02T00:57:36;-21727.06;;;21.65;55.00
7337;BME280;54510;42.016;23.098;2022-08-02T01:00:03;-21727.63;;;21.67;55.04
7337;BME280;54510;42.016;23.098;2022-08-02T01:02:29;-21732.25;;;21.85;54.42
7337;BME280;54510;42.016;23.098;2022-08-02T01:04:54;-21732.00;;;21.84;54.25
7337;BME280;54510;42.016;23.098;2022-08-02T01:07:20;-21721.03;;;21.43;55.54
7337;BME280;54510;42.016;23.098;2022-08-02T01:09:45;-21721.88;;;21.46;55.36
7337;BME280;54510;42.016;23.098;2022-08-02T01:12:11;-21731.16;;;21.81;54.65
7337;BME280;54510;42.016;23.098;2022-08-02T01:14:38;-21723.66;;;21.53;55.79
7337;BME280;54510;42.016;23.098;2022-08-02T01:17:08;-21717.34;;;21.29;55.75
7337;BME280;54510;42.016;23.098;2022-08-02T01:25:24;-21713.09;;;21.14;56.49
7337;BME280;54510;42.016;23.098;2022-08-02T01:28:10;-21716.25;;;21.25;55.99
7337;BME280;54510;42.016;23.098;2022-08-02T01:30:43;-21722.69;;;21.49;55.81
7337;BME280;54510;42.016;23.098;2022-08-02T01:33:16;-21725.16;;;21.58;55.29
7337;BME280;54510;42.016;23.098;2022-08-02T01:35:46;-21721.31;;;21.44;55.87
7337;BME280;54510;42.016;23.098;2022-08-02T01:38:37;-21717.34;;;21.29;55.93
7337;BME280;54510;42.016;23.098;2022-08-02T01:41:07;-21708.03;;;20.95;56.92
7337;BME280;54510;42.016;23.098;2022-08-02T01:43:34;-21713.09;;;21.14;56.53
7337;BME280;54510;42.016;23.098;2022-08-02T01:46:02;-21712.00;;;21.10;56.66
7337;BME280;54510;42.016;23.098;2022-08-02T01:48:30;-21717.50;;;21.30;56.34
7337;BME280;54510;42.016;23.098;2022-08-02T01:50:57;-21718.31;;;21.33;55.89
7337;BME280;54510;42.016;23.098;2022-08-02T01:53:24;-21723.38;;;21.52;56.03
7337;BME280;54510;42.016;23.098;2022-08-02T01:55:55;-21733.38;;;21.89;55.01
7337;BME280;54510;42.016;23.098;2022-08-02T01:58:23;-21733.91;;;21.91;54.88
7337;BME280;54510;42.016;23.098;2022-08-02T02:00:51;-21733.22;;;21.88;54.38
7337;BME280;54510;42.016;23.098;2022-08-02T02:03:21;-21734.03;;;21.91;54.13
7337;BME280;54510;42.016;23.098;2022-08-02T02:05:48;-21733.09;;;21.88;53.82
7337;BME280;54510;42.016;23.098;2022-08-02T02:08:15;-21732.00;;;21.84;53.81
7337;BME280;54510;42.016;23.098;2022-08-02T02:10:44;-21728.44;;;21.71;53.81
7337;BME280;54510;42.016;23.098;2022-08-02T02:13:16;-21726.13;;;21.62;54.38
7337;BME280;54510;42.016;23.098;2022-08-02T02:15:46;-21725.44;;;21.59;54.91
7337;BME280;54510;42.016;23.098;2022-08-02T02:18:17;-21722.81;;;21.50;54.61
7337;BME280;54510;42.016;23.098;2022-08-02T02:20:45;-21720.63;;;21.42;54.74
7337;BME280;54510;42.016;23.098;2022-08-02T02:23:11;-21718.03;;;21.32;55.40
7337;BME280;54510;42.016;23.098;2022-08-02T02:25:40;-21725.44;;;21.59;54.88
7337;BME280;54510;42.016;23.098;2022-08-02T02:28:11;-21727.06;;;21.65;54.67
7337;BME280;54510;42.016;23.098;2022-08-02T02:30:48;-21720.22;;;21.40;55.15
7337;BME280;54510;42.016;23.098;2022-08-02T02:33:17;-21721.47;;;21.45;55.20
7337;BME280;54510;42.016;23.098;2022-08-02T02:35:45;-21727.06;;;21.65;55.14
7337;BME280;54510;42.016;23.098;2022-08-02T02:38:13;-21727.75;;;21.68;54.87
7337;BME280;54510;42.016;23.098;2022-08-02T02:40:40;-21723.38;;;21.52;55.89
7337;BME280;54510;42.016;23.098;2022-08-02T02:43:07;-21718.31;;;21.33;56.33
7337;BME280;54510;42.016;23.098;2022-08-02T02:45:34;-21709.13;;;20.99;57.25
7337;BME280;54510;42.016;23.098;2022-08-02T02:48:01;-21710.09;;;21.03;57.26
7337;BME280;54510;42.016;23.098;2022-08-02T02:50:27;-21710.91;;;21.06;57.74
7337;BME280;54510;42.016;23.098;2022-08-02T02:52:54;-21703.78;;;20.79;57.83
7337;BME280;54510;42.016;23.098;2022-08-02T02:55:21;-21701.59;;;20.71;58.48
7337;BME280;54510;42.016;23.098;2022-08-02T02:57:48;-21695.56;;;20.49;58.68
7337;BME280;54510;42.016;23.098;2022-08-02T03:00:14;-21686.78;;;20.17;59.25
7337;BME280;54510;42.016;23.098;2022-08-02T03:02:42;-21686.94;;;20.17;59.71
7337;BME280;54510;42.016;23.098;2022-08-02T03:05:09;-21687.63;;;20.20;59.89
7337;BME280;54510;42.016;23.098;2022-08-02T03:07:35;-21687.19;;;20.18;59.53
7337;BME280;54510;42.016;23.098;2022-08-02T03:10:05;-21688.72;;;20.24;59.72
7337;BME280;54510;42.016;23.098;2022-08-02T03:12:32;-21690.34;;;20.30;59.56
7337;BME280;54510;42.016;23.098;2022-08-02T03:15:05;-21687.75;;;20.20;59.57
7337;BME280;54510;42.016;23.098;2022-08-02T03:17:39;-21688.72;;;20.24;59.75
7337;BME280;54510;42.016;23.098;2022-08-02T03:20:10;-21684.31;;;20.07;60.55
7337;BME280;54510;42.016;23.098;2022-08-02T03:22:36;-21683.09;;;20.03;60.73
7337;BME280;54510;42.016;23.098;2022-08-02T03:25:02;-21681.44;;;19.97;60.64
7337;BME280;54510;42.016;23.098;2022-08-02T03:27:28;-21681.84;;;19.98;61.13
7337;BME280;54510;42.016;23.098;2022-08-02T03:29:53;-21681.72;;;19.98;60.95
7337;BME280;54510;42.016;23.098;2022-08-02T03:32:19;-21686.94;;;20.17;60.44
7337;BME280;54510;42.016;23.098;2022-08-02T03:34:44;-21689.66;;;20.27;60.24
7337;BME280;54510;42.016;23.098;2022-08-02T03:37:10;-21688.72;;;20.24;60.12
7337;BME280;54510;42.016;23.098;2022-08-02T03:39:36;-21689.25;;;20.26;60.17
7337;BME280;54510;42.016;23.098;2022-08-02T03:42:02;-21695.16;;;20.47;59.29
7337;BME280;54510;42.016;23.098;2022-08-02T03:44:27;-21696.25;;;20.52;59.13
7337;BME280;54510;42.016;23.098;2022-08-02T03:46:54;-21696.13;;;20.51;59.20
7337;BME280;54510;42.016;23.098;2022-08-02T03:49:19;-21690.22;;;20.29;59.43
7337;BME280;54510;42.016;23.098;2022-08-02T03:51:45;-21697.75;;;20.57;59.03
7337;BME280;54510;42.016;23.098;2022-08-02T03:54:12;-21686.78;;;20.17;59.98
7337;BME280;54510;42.016;23.098;2022-08-02T03:56:38;-21690.09;;;20.29;60.38
7337;BME280;54510;42.016;23.098;2022-08-02T03:59:11;-21693.09;;;20.40;60.15
7337;BME280;54510;42.016;23.098;2022-08-02T04:01:37;-21702.41;;;20.74;59.22
7337;BME280;54510;42.016;23.098;2022-08-02T04:04:04;-21702.16;;;20.73;58.85
7337;BME280;54510;42.016;23.098;2022-08-02T04:06:29;-21694.06;;;20.43;59.98
7337;BME280;54510;42.016;23.098;2022-08-02T04:08:55;-21692.28;;;20.37;60.00
7337;BME280;54510;42.016;23.098;2022-08-02T04:11:21;-21685.69;;;20.13;60.68
7337;BME280;54510;42.016;23.098;2022-08-02T04:13:55;-21692.41;;;20.37;59.76
7337;BME280;54510;42.016;23.098;2022-08-02T04:16:27;-21697.91;;;20.58;58.68
7337;BME280;54510;42.016;23.098;2022-08-02T04:18:59;-21685.97;;;20.13;59.88
7337;BME280;54510;42.016;23.098;2022-08-02T04:21:27;-21692.84;;;20.39;59.22
7337;BME280;54510;42.016;23.098;2022-08-02T04:23:56;-21701.88;;;20.72;58.47
7337;BME280;54510;42.016;23.098;2022-08-02T04:26:22;-21706.81;;;20.90;58.51
7337;BME280;54510;42.016;23.098;2022-08-02T04:28:49;-21711.31;;;21.07;58.02
7337;BME280;54510;42.016;23.098;2022-08-02T04:31:18;-21715.56;;;21.23;57.79
7337;BME280;54510;42.016;23.098;2022-08-02T04:33:44;-21713.38;;;21.15;57.21
7337;BME280;54510;42.016;23.098;2022-08-02T04:36:10;-21714.75;;;21.20;57.69
7337;BME280;54510;42.016;23.098;2022-08-02T04:38:39;-21715.31;;;21.22;56.99
7337;BME280;54510;42.016;23.098;2022-08-02T04:41:05;-21718.16;;;21.33;56.83
7337;BME280;54510;42.016;23.098;2022-08-02T04:43:31;-21718.84;;;21.35;57.09
7337;BME280;54510;42.016;23.098;2022-08-02T04:45:56;-21721.03;;;21.43;56.71
7337;BME280;54510;42.016;23.098;2022-08-02T04:48:22;-21722.56;;;21.49;56.66
7337;BME280;54510;42.016;23.098;2022-08-02T04:50:49;-21725.97;;;21.61;56.31
7337;BME280;54510;42.016;23.098;2022-08-02T04:53:15;-21727.63;;;21.67;56.27
7337;BME280;54510;42.016;23.098;2022-08-02T04:55:41;-21727.34;;;21.66;56.38
7337;BME280;54510;42.016;23.098;2022-08-02T04:58:06;-21730.06;;;21.77;56.16
7337;BME280;54510;42.016;23.098;2022-08-02T05:00:32;-21731.44;;;21.82;55.65
7337;BME280;54510;42.016;23.098;2022-08-02T05:02:59;-21733.91;;;21.91;55.37
7337;BME280;54510;42.016;23.098;2022-08-02T05:05:25;-21732.00;;;21.84;55.45
7337;BME280;54510;42.016;23.098;2022-08-02T05:07:51;-21736.66;;;22.01;55.09
7337;BME280;54510;42.016;23.098;2022-08-02T05:10:17;-21738.97;;;22.10;55.23
7337;BME280;54510;42.016;23.098;2022-08-02T05:12:43;-21746.50;;;22.37;54.32
7337;BME280;54510;42.016;23.098;2022-08-02T05:15:11;-21749.78;;;22.50;53.76
7337;BME280;54510;42.016;23.098;2022-08-02T05:17:36;-21746.91;;;22.39;53.74
7337;BME280;54510;42.016;23.098;2022-08-02T05:20:03;-21745.13;;;22.32;54.06
7337;BME280;54510;42.016;23.098;2022-08-02T05:22:29;-21748.41;;;22.44;53.99
7337;BME280;54510;42.016;23.098;2022-08-02T05:24:54;-21749.91;;;22.50;53.74
7337;BME280;54510;42.016;23.098;2022-08-02T05:27:20;-21753.59;;;22.64;53.86
7337;BME280;54510;42.016;23.098;2022-08-02T05:29:45;-21752.78;;;22.61;53.41
7337;BME280;54510;42.016;23.098;2022-08-02T05:32:11;-21757.44;;;22.78;52.78
7337;BME280;54510;42.016;23.098;2022-08-02T05:34:36;-21755.22;;;22.70;53.07
7337;BME280;54510;42.016;23.098;2022-08-02T05:37:01;-21753.31;;;22.63;53.38
7337;BME280;54510;42.016;23.098;2022-08-02T05:39:27;-21752.22;;;22.59;53.44
7337;BME280;54510;42.016;23.098;2022-08-02T05:41:52;-21756.59;;;22.75;52.53
7337;BME280;54510;42.016;23.098;2022-08-02T05:44:18;-21755.22;;;22.70;53.02
7337;BME280;54510;42.016;23.098;2022-08-02T05:46:43;-21763.03;;;22.99;52.58
7337;BME280;54510;42.016;23.098;2022-08-02T05:49:09;-21757.97;;;22.80;53.00
7337;BME280;54510;42.016;23.098;2022-08-02T05:51:39;-21757.28;;;22.77;52.83
7337;BME280;54510;42.016;23.098;2022-08-02T05:54:16;-21762.22;;;22.96;52.48
7337;BME280;54510;42.016;23.098;2022-08-02T05:56:51;-21761.13;;;22.92;51.79
7337;BME280;54510;42.016;23.098;2022-08-02T06:01:56;-21775.59;;;23.45;50.83
7337;BME280;54510;42.016;23.098;2022-08-02T06:04:43;-21779.94;;;23.61;50.76
7337;BME280;54510;42.016;23.098;2022-08-02T06:07:13;-21786.63;;;23.86;50.47
7337;BME280;54510;42.016;23.098;2022-08-02T06:09:40;-21783.63;;;23.75;50.03
7337;BME280;54510;42.016;23.098;2022-08-02T06:12:09;-21792.50;;;24.08;49.23
7337;BME280;54510;42.016;23.098;2022-08-02T06:14:36;-21793.59;;;24.12;49.40
7337;BME280;54510;42.016;23.098;2022-08-02T06:17:04;-21794.53;;;24.16;48.80
7337;BME280;54510;42.016;23.098;2022-08-02T06:19:31;-21800.53;;;24.38;48.72
7337;BME280;54510;42.016;23.098;2022-08-02T06:21:57;-21806.28;;;24.59;47.98
7337;BME280;54510;42.016;23.098;2022-08-02T06:24:42;-21809.81;;;24.72;47.47
7337;BME280;54510;42.016;23.098;2022-08-02T06:27:12;-21812.13;;;24.81;47.21
7337;BME280;54510;42.016;23.098;2022-08-02T06:29:39;-21813.06;;;24.85;47.12
7337;BME280;54510;42.016;23.098;2022-08-02T06:32:06;-21810.09;;;24.73;47.06
7337;BME280;54510;42.016;23.098;2022-08-02T06:34:35;-21807.63;;;24.64;47.22
7337;BME280;54510;42.016;23.098;2022-08-02T06:37:12;-21808.84;;;24.69;47.37
7337;BME280;54510;42.016;23.098;2022-08-02T06:39:43;-21811.03;;;24.77;46.87
7337;BME280;54510;42.016;23.098;2022-08-02T06:42:17;-21811.44;;;24.78;46.95
7337;BME280;54510;42.016;23.098;2022-08-02T06:44:46;-21815.25;;;24.93;46.39
7337;BME280;54510;42.016;23.098;2022-08-02T06:47:12;-21818.53;;;25.05;46.11
7337;BME280;54510;42.016;23.098;2022-08-02T06:49:38;-21824.25;;;25.26;46.15
7337;BME280;54510;42.016;23.098;2022-08-02T06:52:04;-21826.00;;;25.33;46.21
7337;BME280;54510;42.016;23.098;2022-08-02T06:54:29;-21831.72;;;25.54;46.21
7337;BME280;54510;42.016;23.098;2022-08-02T06:56:54;-21835.53;;;25.68;46.02
7337;BME280;54510;42.016;23.098;2022-08-02T06:59:20;-21833.38;;;25.60;45.87
7337;BME280;54510;42.016;23.098;2022-08-02T07:01:45;-21834.88;;;25.66;45.45
7337;BME280;54510;42.016;23.098;2022-08-02T07:04:11;-21833.38;;;25.60;45.73
7337;BME280;54510;42.016;23.098;2022-08-02T07:06:36;-21832.13;;;25.55;45.63
7337;BME280;54510;42.016;23.098;2022-08-02T07:09:02;-21840.56;;;25.87;45.27
7337;BME280;54510;42.016;23.098;2022-08-02T07:11:27;-21841.66;;;25.91;44.89
7337;BME280;54510;42.016;23.098;2022-08-02T07:13:53;-21836.63;;;25.72;44.46
7337;BME280;54510;42.016;23.098;2022-08-02T07:16:18;-21845.06;;;26.04;44.26
7337;BME280;54510;42.016;23.098;2022-08-02T07:18:43;-21846.41;;;26.09;44.45
7337;BME280;54510;42.016;23.098;2022-08-02T07:21:09;-21847.50;;;26.13;44.23
7337;BME280;54510;42.016;23.098;2022-08-02T07:23:34;-21854.72;;;26.40;43.63
7337;BME280;54510;42.016;23.098;2022-08-02T07:26:00;-21857.97;;;26.52;43.16
7337;BME280;54510;42.016;23.098;2022-08-02T07:28:25;-21859.88;;;26.59;43.13
7337;BME280;54510;42.016;23.098;2022-08-02T07:30:51;-21862.31;;;26.68;42.84
7337;BME280;54510;42.016;23.098;2022-08-02T07:33:16;-21857.56;;;26.50;43.00
7337;BME280;54510;42.016;23.098;2022-08-02T07:35:42;-21864.22;;;26.75;43.08
7337;BME280;54510;42.016;23.098;2022-08-02T07:38:07;-21862.31;;;26.68;42.66
7337;BME280;54510;42.016;23.098;2022-08-02T07:40:33;-21862.72;;;26.69;42.36
7337;BME280;54510;42.016;23.098;2022-08-02T07:42:58;-21866.66;;;26.84;42.44
7337;BME280;54510;42.016;23.098;2022-08-02T07:45:24;-21868.56;;;26.91;41.90
7337;BME280;54510;42.016;23.098;2022-08-02T07:47:51;-21866.53;;;26.84;42.29
7337;BME280;54510;42.016;23.098;2022-08-02T07:50:18;-21866.41;;;26.83;41.89
7337;BME280;54510;42.016;23.098;2022-08-02T07:52:45;-21867.22;;;26.86;41.86
7337;BME280;54510;42.016;23.098;2022-08-02T07:55:12;-21866.66;;;26.84;41.91
7337;BME280;54510;42.016;23.098;2022-08-02T07:57:39;-21871.81;;;27.03;41.42
7337;BME280;54510;42.016;23.098;2022-08-02T08:00:06;-21877.25;;;27.24;41.10
7337;BME280;54510;42.016;23.098;2022-08-02T08:02:33;-21881.59;;;27.40;40.72
7337;BME280;54510;42.016;23.098;2022-08-02T08:04:59;-21884.31;;;27.50;40.64
7337;BME280;54510;42.016;23.098;2022-08-02T08:07:24;-21887.31;;;27.61;40.38
7337;BME280;54510;42.016;23.098;2022-08-02T08:09:50;-21885.81;;;27.56;40.42
7337;BME280;54510;42.016;23.098;2022-08-02T08:12:15;-21886.09;;;27.57;40.44
7337;BME280;54510;42.016;23.098;2022-08-02T08:14:41;-21889.34;;;27.69;40.30
7337;BME280;54510;42.016;23.098;2022-08-02T08:17:06;-21892.72;;;27.81;40.06
7337;BME280;54510;42.016;23.098;2022-08-02T08:19:33;-21895.97;;;27.94;40.37
7337;BME280;54510;42.016;23.098;2022-08-02T08:21:58;-21899.38;;;28.06;39.99
7337;BME280;54510;42.016;23.098;2022-08-02T08:24:27;-21898.94;;;28.05;38.89
7337;BME280;54510;42.016;23.098;2022-08-02T08:26:54;-21902.63;;;28.18;39.06
7337;BME280;54510;42.016;23.098;2022-08-02T08:29:20;-21899.63;;;28.07;38.23
7337;BME280;54510;42.016;23.098;2022-08-02T08:31:45;-21908.97;;;28.42;37.29
7337;BME280;54510;42.016;23.098;2022-08-02T08:34:11;-21914.13;;;28.61;37.03
7337;BME280;54510;42.016;23.098;2022-08-02T08:36:38;-21916.44;;;28.70;35.83
7337;BME280;54510;42.016;23.098;2022-08-02T08:39:04;-21922.00;;;28.91;36.30
7337;BME280;54510;42.016;23.098;2022-08-02T08:41:29;-21924.69;;;29.01;35.48
7337;BME280;54510;42.016;23.098;2022-08-02T08:43:55;-21917.94;;;28.76;36.08
7337;BME280;54510;42.016;23.098;2022-08-02T08:46:28;-21924.97;;;29.02;35.29
7337;BME280;54510;42.016;23.098;2022-08-02T08:48:59;-21926.44;;;29.07;34.89
7337;BME280;54510;42.016;23.098;2022-08-02T08:51:29;-21925.38;;;29.03;35.11
7337;BME280;54510;42.016;23.098;2022-08-02T08:53:56;-21929.03;;;29.17;34.33
7337;BME280;54510;42.016;23.098;2022-08-02T08:56:28;-21930.78;;;29.24;34.82
7337;BME280;54510;42.016;23.098;2022-08-02T08:58:56;-21933.50;;;29.34;35.03
7337;BME280;54510;42.016;23.098;2022-08-02T09:01:22;-21926.59;;;29.08;34.76
7337;BME280;54510;42.016;23.098;2022-08-02T09:03:47;-21931.47;;;29.26;35.10
7337;BME280;54510;42.016;23.098;2022-08-02T09:06:13;-21934.84;;;29.39;34.36
7337;BME280;54510;42.016;23.098;2022-08-02T09:08:38;-21933.75;;;29.35;34.96
7337;BME280;54510;42.016;23.098;2022-08-02T09:11:12;-21923.75;;;28.97;35.24
7337;BME280;54510;42.016;23.098;2022-08-02T09:13:48;-21929.84;;;29.20;34.70
7337;BME280;54510;42.016;23.098;2022-08-02T09:16:14;-21924.03;;;28.98;35.29
7337;BME280;54510;42.016;23.098;2022-08-02T09:18:44;-21927.13;;;29.10;34.69
7337;BME280;54510;42.016;23.098;2022-08-02T09:21:10;-21937.81;;;29.50;34.48
7337;BME280;54510;42.016;23.098;2022-08-02T09:23:45;-21937.69;;;29.50;34.51
7337;BME280;54510;42.016;23.098;2022-08-02T09:26:13;-21944.56;;;29.75;34.81
7337;BME280;54510;42.016;23.098;2022-08-02T09:28:41;-21940.78;;;29.61;33.82
7337;BME280;54510;42.016;23.098;2022-08-02T09:31:09;-21937.00;;;29.47;33.80
7337;BME280;54510;42.016;23.098;2022-08-02T09:33:36;-21940.13;;;29.59;34.25
7337;BME280;54510;42.016;23.098;2022-08-02T09:36:13;-21951.88;;;30.03;34.04
7337;BME280;54510;42.016;23.098;2022-08-02T09:38:51;-21948.22;;;29.89;34.32
7337;BME280;54510;42.016;23.098;2022-08-02T09:41:22;-21947.13;;;29.85;33.67
7337;BME280;54510;42.016;23.098;2022-08-02T09:43:49;-21945.66;;;29.79;33.80
7337;BME280;54510;42.016;23.098;2022-08-02T09:46:19;-21947.41;;;29.86;32.93
7337;BME280;54510;42.016;23.098;2022-08-02T09:48:50;-21953.75;;;30.10;32.90
7337;BME280;54510;42.016;23.098;2022-08-02T09:51:18;-21955.25;;;30.15;33.49
7337;BME280;54510;42.016;23.098;2022-08-02T09:53:46;-21946.88;;;29.84;33.36
7337;BME280;54510;42.016;23.098;2022-08-02T09:56:11;-21947.97;;;29.88;33.94
7337;BME280;54510;42.016;23.098;2022-08-02T09:58:38;-21954.56;;;30.13;33.50
7337;BME280;54510;42.016;23.098;2022-08-02T10:01:04;-21953.09;;;30.07;33.76
7337;BME280;54510;42.016;23.098;2022-08-02T10:03:29;-21956.59;;;30.20;33.45
7337;BME280;54510;42.016;23.098;2022-08-02T10:05:55;-21955.13;;;30.15;33.25
7337;BME280;54510;42.016;23.098;2022-08-02T10:08:23;-21955.53;;;30.16;33.18
7337;BME280;54510;42.016;23.098;2022-08-02T10:10:49;-21960.91;;;30.37;32.52
7337;BME280;54510;42.016;23.098;2022-08-02T10:13:27;-21964.72;;;30.51;32.01
7337;BME280;54510;42.016;23.098;2022-08-02T10:15:54;-21965.13;;;30.52;32.19
7337;BME280;54510;42.016;23.098;2022-08-02T10:18:20;-21972.41;;;30.80;32.80
7337;BME280;54510;42.016;23.098;2022-08-02T10:20:47;-21971.84;;;30.78;32.99
7337;BME280;54510;42.016;23.098;2022-08-02T10:23:14;-21982.13;;;31.16;32.44
7337;BME280;54510;42.016;23.098;2022-08-02T10:25:41;-21971.47;;;30.76;31.84
7337;BME280;54510;42.016;23.098;2022-08-02T10:28:10;-21968.34;;;30.65;32.30
7337;BME280;54510;42.016;23.098;2022-08-02T10:30:39;-21973.47;;;30.84;31.29
7337;BME280;54510;42.016;23.098;2022-08-02T10:33:07;-21970.91;;;30.74;32.33
7337;BME280;54510;42.016;23.098;2022-08-02T10:35:36;-21972.94;;;30.82;32.80
7337;BME280;54510;42.016;23.098;2022-08-02T10:38:08;-21973.75;;;30.85;32.25
7337;BME280;54510;42.016;23.098;2022-08-02T10:46:23;-21972.94;;;30.82;31.67
7337;BME280;54510;42.016;23.098;2022-08-02T10:49:14;-21981.84;;;31.15;31.55
7337;BME280;54510;42.016;23.098;2022-08-02T10:54:35;-21973.63;;;30.84;31.31
7337;BME280;54510;42.016;23.098;2022-08-02T10:57:01;-21982.78;;;31.19;31.38
7337;BME280;54510;42.016;23.098;2022-08-02T10:59:29;-21980.38;;;31.10;31.42
7337;BME280;54510;42.016;23.098;2022-08-02T11:01:56;-21982.13;;;31.16;31.58
7337;BME280;54510;42.016;23.098;2022-08-02T11:07:30;-21989.13;;;31.43;31.74
7337;BME280;54510;42.016;23.098;2022-08-02T11:09:57;-21999.63;;;31.82;30.80
7337;BME280;54510;42.016;23.098;2022-08-02T11:12:24;-21993.56;;;31.59;31.27
7337;BME280;54510;42.016;23.098;2022-08-02T11:15:00;-21990.19;;;31.47;31.22
7337;BME280;54510;42.016;23.098;2022-08-02T11:17:51;-22000.31;;;31.85;31.11
7337;BME280;54510;42.016;23.098;2022-08-02T11:20:17;-21993.56;;;31.59;31.37
7337;BME280;54510;42.016;23.098;2022-08-02T11:22:44;-21989.25;;;31.43;31.89
7337;BME280;54510;42.016;23.098;2022-08-02T11:28:07;-22001.38;;;31.89;31.22
7337;BME280;54510;42.016;23.098;2022-08-02T11:30:34;-22003.53;;;31.97;31.54
7337;BME280;54510;42.016;23.098;2022-08-02T11:33:00;-22012.03;;;32.29;31.05
7337;BME280;54510;42.016;23.098;2022-08-02T11:35:32;-22008.25;;;32.14;31.40
7337;BME280;54510;42.016;23.098;2022-08-02T11:38:15;-22015.25;;;32.41;30.74
7337;BME280;54510;42.016;23.098;2022-08-02T11:40:41;-22021.84;;;32.66;30.54
7337;BME280;54510;42.016;23.098;2022-08-02T11:43:18;-22012.69;;;32.31;30.58
7337;BME280;54510;42.016;23.098;2022-08-02T11:45:44;-22001.25;;;31.88;30.36
7337;BME280;54510;42.016;23.098;2022-08-02T11:48:10;-22017.69;;;32.50;30.17
7337;BME280;54510;42.016;23.098;2022-08-02T11:50:35;-22020.63;;;32.61;30.18
7337;BME280;54510;42.016;23.098;2022-08-02T11:53:01;-22025.88;;;32.81;29.55
7337;BME280;54510;42.016;23.098;2022-08-02T11:55:30;-22019.69;;;32.58;30.02
7337;BME280;54510;42.016;23.098;2022-08-02T11:58:01;-22026.97;;;32.85;29.73
7337;BME280;54510;42.016;23.098;2022-08-02T12:00:27;-22030.31;;;32.98;29.38
7337;BME280;54510;42.016;23.098;2022-08-02T12:02:52;-22024.81;;;32.77;29.24
7337;BME280;54510;42.016;23.098;2022-08-02T12:05:19;-22028.84;;;32.92;29.05
7337;BME280;54510;42.016;23.098;2022-08-02T12:07:46;-22028.97;;;32.92;28.62
7337;BME280;54510;42.016;23.098;2022-08-02T12:10:17;-22046.19;;;33.57;28.98
7337;BME280;54510;42.016;23.098;2022-08-02T12:15:37;-22052.75;;;33.82;27.66
7337;BME280;54510;42.016;23.098;2022-08-02T12:18:10;-22039.72;;;33.33;28.61
7337;BME280;54510;42.016;23.098;2022-08-02T12:20:54;-22039.19;;;33.31;27.87
7337;BME280;54510;42.016;23.098;2022-08-02T12:23:19;-22045.25;;;33.54;28.34
7337;BME280;54510;42.016;23.098;2022-08-02T12:25:45;-22046.59;;;33.59;27.86
7337;BME280;54510;42.016;23.098;2022-08-02T12:28:19;-22053.84;;;33.86;28.17
7337;BME280;54510;42.016;23.098;2022-08-02T12:30:58;-22049.13;;;33.68;27.55
7337;BME280;54510;42.016;23.098;2022-08-02T12:33:42;-22064.72;;;34.27;27.57
7337;BME280;54510;42.016;23.098;2022-08-02T12:36:25;-22055.19;;;33.91;27.32
7337;BME280;54510;42.016;23.098;2022-08-02T12:38:59;-22058.66;;;34.04;27.17
7337;BME280;54510;42.016;23.098;2022-08-02T12:41:26;-22053.16;;;33.84;28.02
7337;BME280;54510;42.016;23.098;2022-08-02T12:43:53;-22047.41;;;33.62;27.75
7337;BME280;54510;42.016;23.098;2022-08-02T12:46:20;-22060.94;;;34.13;27.85
7337;BME280;54510;42.016;23.098;2022-08-02T12:48:46;-22065.13;;;34.29;27.33
7337;BME280;54510;42.016;23.098;2022-08-02T12:51:25;-22062.56;;;34.19;27.56
7337;BME280;54510;42.016;23.098;2022-08-02T12:53:54;-22055.84;;;33.94;27.30
7337;BME280;54510;42.016;23.098;2022-08-02T12:56:32;-22055.72;;;33.93;27.42
7337;BME280;54510;42.016;23.098;2022-08-02T12:59:00;-22070.34;;;34.48;27.34
7337;BME280;54510;42.016;23.098;2022-08-02T13:01:27;-22074.78;;;34.65;26.83
7337;BME280;54510;42.016;23.098;2022-08-02T13:03:53;-22070.63;;;34.49;26.59
7337;BME280;54510;42.016;23.098;2022-08-02T13:06:20;-22073.44;;;34.60;26.01
7337;BME280;54510;42.016;23.098;2022-08-02T13:08:47;-22079.72;;;34.84;26.19
7337;BME280;54510;42.016;23.098;2022-08-02T13:11:13;-22061.63;;;34.16;26.23
7337;BME280;54510;42.016;23.098;2022-08-02T13:13:38;-22065.53;;;34.30;26.64
7337;BME280;54510;42.016;23.098;2022-08-02T13:16:04;-22067.81;;;34.39;26.05
7337;BME280;54510;42.016;23.098;2022-08-02T13:18:30;-22072.75;;;34.58;26.31
7337;BME280;54510;42.016;23.098;2022-08-02T13:20:56;-22072.75;;;34.58;26.20
7337;BME280;54510;42.016;23.098;2022-08-02T13:23:21;-22076.91;;;34.73;25.88